sensor_id;sensor_type;location;lat;lon;timestamp;P1;durP1;ratioP1;P2;durP2;ratioP2
31210;SDS011;17836;50.948;3.946;2023-04-25T00:01:04;15.50;;;6.70;;
31210;SDS011;17836;50.948;3.946;2023-04-25T00:03:30;19.20;;;7.30;;
31210;SDS011;17836;50.948;3.946;2023-04-25T00:05:55;19.50;;;6.32;;
31210;SDS011;17836;50.948;3.946;2023-04-25T00:08:21;12.20;;;6.10;;
31210;SDS011;17836;50.948;3.946;2023-04-25T00:10:47;11.18;;;6.25;;
31210;SDS011;17836;50.948;3.946;2023-04-25T00:13:13;14.20;;;6.03;;
31210;SDS011;17836;50.948;3.946;2023-04-25T00:15:39;11.85;;;6.10;;
31210;SDS011;17836;50.948;3.946;2023-04-25T00:18:06;13.25;;;5.82;;
31210;SDS011;17836;50.948;3.946;2023-04-25T00:20:31;12.98;;;5.68;;
31210;SDS011;17836;50.948;3.946;2023-04-25T00:22:57;17.83;;;6.27;;
31210;SDS011;17836;50.948;3.946;2023-04-25T00:25:22;15.10;;;6.13;;
31210;SDS011;17836;50.948;3.946;2023-04-25T00:27:47;12.43;;;5.75;;
31210;SDS011;17836;50.948;3.946;2023-04-25T00:30:13;14.13;;;5.83;;
31210;SDS011;17836;50.948;3.946;2023-04-25T00:32:41;20.55;;;6.13;;
31210;SDS011;17836;50.948;3.946;2023-04-25T00:35:08;13.80;;;5.78;;
31210;SDS011;17836;50.948;3.946;2023-04-25T00:37:34;17.65;;;6.32;;
31210;SDS011;17836;50.948;3.946;2023-04-25T00:40:01;17.30;;;5.30;;
31210;SDS011;17836;50.948;3.946;2023-04-25T00:42:29;18.17;;;5.95;;
31210;SDS011;17836;50.948;3.946;2023-04-25T00:44:54;13.75;;;5.60;;
31210;SDS011;17836;50.948;3.946;2023-04-25T00:47:21;16.55;;;5.85;;
31210;SDS011;17836;50.948;3.946;2023-04-25T00:49:46;15.13;;;5.50;;
31210;SDS011;17836;50.948;3.946;2023-04-25T00:52:11;13.60;;;6.17;;
31210;SDS011;17836;50.948;3.946;2023-04-25T00:54:37;15.90;;;5.85;;
31210;SDS011;17836;50.948;3.946;2023-04-25T00:57:03;25.98;;;6.85;;
31210;SDS011;17836;50.948;3.946;2023-04-25T00:59:28;20.02;;;6.00;;
31210;SDS011;17836;50.948;3.946;2023-04-25T01:01:54;24.05;;;6.63;;
31210;SDS011;17836;50.948;3.946;2023-04-25T01:04:20;16.38;;;6.20;;
31210;SDS011;17836;50.948;3.946;2023-04-25T01:06:47;14.50;;;5.07;;
31210;SDS011;17836;50.948;3.946;2023-04-25T01:09:13;18.08;;;5.03;;
31210;SDS011;17836;50.948;3.946;2023-04-25T01:11:38;12.23;;;5.05;;
31210;SDS011;17836;50.948;3.946;2023-04-25T01:14:07;13.75;;;4.88;;
31210;SDS011;17836;50.948;3.946;2023-04-25T01:16:33;20.23;;;6.60;;
31210;SDS011;17836;50.948;3.946;2023-04-25T01:18:58;15.30;;;5.70;;
31210;SDS011;17836;50.948;3.946;2023-04-25T01:21:24;17.33;;;5.32;;
31210;SDS011;17836;50.948;3.946;2023-04-25T01:23:52;14.75;;;5.55;;
31210;SDS011;17836;50.948;3.946;2023-04-25T01:26:18;17.67;;;5.72;;
31210;SDS011;17836;50.948;3.946;2023-04-25T01:28:48;19.58;;;5.25;;
31210;SDS011;17836;50.948;3.946;2023-04-25T01:31:14;21.90;;;5.93;;
31210;SDS011;17836;50.948;3.946;2023-04-25T01:33:42;15.23;;;5.60;;
31210;SDS011;17836;50.948;3.946;2023-04-25T01:36:07;23.55;;;6.13;;
31210;SDS011;17836;50.948;3.946;2023-04-25T01:38:35;16.70;;;6.80;;
31210;SDS011;17836;50.948;3.946;2023-04-25T01:41:00;18.95;;;6.40;;
31210;SDS011;17836;50.948;3.946;2023-04-25T01:43:26;14.85;;;5.55;;
31210;SDS011;17836;50.948;3.946;2023-04-25T01:45:51;14.77;;;4.72;;
31210;SDS011;17836;50.948;3.946;2023-04-25T01:48:17;13.25;;;5.43;;
31210;SDS011;17836;50.948;3.946;2023-04-25T01:50:43;15.15;;;5.18;;
31210;SDS011;17836;50.948;3.946;2023-04-25T01:53:12;15.02;;;5.00;;
31210;SDS011;17836;50.948;3.946;2023-04-25T01:55:38;11.75;;;4.30;;
31210;SDS011;17836;50.948;3.946;2023-04-25T01:58:06;14.77;;;4.97;;
31210;SDS011;17836;50.948;3.946;2023-04-25T02:00:34;16.73;;;4.63;;
31210;SDS011;17836;50.948;3.946;2023-04-25T02:02:59;17.92;;;5.60;;
31210;SDS011;17836;50.948;3.946;2023-04-25T02:05:25;12.00;;;4.63;;
31210;SDS011;17836;50.948;3.946;2023-04-25T02:07:50;19.80;;;4.80;;
31210;SDS011;17836;50.948;3.946;2023-04-25T02:10:17;20.08;;;6.57;;
31210;SDS011;17836;50.948;3.946;2023-04-25T02:12:43;13.25;;;4.50;;
31210;SDS011;17836;50.948;3.946;2023-04-25T02:15:08;23.67;;;5.40;;
31210;SDS011;17836;50.948;3.946;2023-04-25T02:17:33;15.35;;;5.28;;
31210;SDS011;17836;50.948;3.946;2023-04-25T02:20:01;15.68;;;5.68;;
31210;SDS011;17836;50.948;3.946;2023-04-25T02:22:26;19.98;;;4.75;;
31210;SDS011;17836;50.948;3.946;2023-04-25T02:24:54;22.58;;;5.82;;
31210;SDS011;17836;50.948;3.946;2023-04-25T02:27:20;17.70;;;5.00;;
31210;SDS011;17836;50.948;3.946;2023-04-25T02:29:45;21.77;;;5.57;;
31210;SDS011;17836;50.948;3.946;2023-04-25T02:32:10;19.40;;;5.90;;
31210;SDS011;17836;50.948;3.946;2023-04-25T02:34:35;25.75;;;5.70;;
31210;SDS011;17836;50.948;3.946;2023-04-25T02:37:01;21.48;;;6.65;;
31210;SDS011;17836;50.948;3.946;2023-04-25T02:39:26;13.80;;;5.37;;
31210;SDS011;17836;50.948;3.946;2023-04-25T02:41:52;15.65;;;5.50;;
31210;SDS011;17836;50.948;3.946;2023-04-25T02:44:17;8.75;;;3.90;;
31210;SDS011;17836;50.948;3.946;2023-04-25T02:46:42;9.77;;;4.68;;
31210;SDS011;17836;50.948;3.946;2023-04-25T02:49:08;9.13;;;4.85;;
31210;SDS011;17836;50.948;3.946;2023-04-25T02:51:33;7.53;;;4.10;;
31210;SDS011;17836;50.948;3.946;2023-04-25T02:53:58;12.60;;;4.93;;
31210;SDS011;17836;50.948;3.946;2023-04-25T02:56:24;5.70;;;4.05;;
31210;SDS011;17836;50.948;3.946;2023-04-25T02:58:51;12.95;;;5.03;;
31210;SDS011;17836;50.948;3.946;2023-04-25T03:01:16;11.18;;;4.22;;
31210;SDS011;17836;50.948;3.946;2023-04-25T03:03:41;11.93;;;5.22;;
31210;SDS011;17836;50.948;3.946;2023-04-25T03:06:06;15.73;;;4.87;;
31210;SDS011;17836;50.948;3.946;2023-04-25T03:08:32;10.18;;;4.50;;
31210;SDS011;17836;50.948;3.946;2023-04-25T03:10:59;18.80;;;5.65;;
31210;SDS011;17836;50.948;3.946;2023-04-25T03:13:26;18.55;;;5.55;;
31210;SDS011;17836;50.948;3.946;2023-04-25T03:15:54;16.40;;;5.75;;
31210;SDS011;17836;50.948;3.946;2023-04-25T03:18:19;11.05;;;5.55;;
31210;SDS011;17836;50.948;3.946;2023-04-25T03:20:44;15.50;;;5.30;;
31210;SDS011;17836;50.948;3.946;2023-04-25T03:23:12;18.23;;;5.82;;
31210;SDS011;17836;50.948;3.946;2023-04-25T03:25:37;11.05;;;5.05;;
31210;SDS011;17836;50.948;3.946;2023-04-25T03:28:02;21.03;;;5.70;;
31210;SDS011;17836;50.948;3.946;2023-04-25T03:30:28;12.03;;;4.77;;
31210;SDS011;17836;50.948;3.946;2023-04-25T03:32:53;15.23;;;5.93;;
31210;SDS011;17836;50.948;3.946;2023-04-25T03:35:18;18.45;;;5.43;;
31210;SDS011;17836;50.948;3.946;2023-04-25T03:37:43;12.60;;;4.82;;
31210;SDS011;17836;50.948;3.946;2023-04-25T03:40:11;21.90;;;5.72;;
31210;SDS011;17836;50.948;3.946;2023-04-25T03:42:37;14.38;;;5.50;;
31210;SDS011;17836;50.948;3.946;2023-04-25T03:45:02;14.52;;;4.93;;
31210;SDS011;17836;50.948;3.946;2023-04-25T03:47:28;16.27;;;6.45;;
31210;SDS011;17836;50.948;3.946;2023-04-25T03:49:53;13.43;;;4.90;;
31210;SDS011;17836;50.948;3.946;2023-04-25T03:52:18;16.77;;;5.30;;
31210;SDS011;17836;50.948;3.946;2023-04-25T03:54:43;11.95;;;4.50;;
31210;SDS011;17836;50.948;3.946;2023-04-25T03:57:09;15.05;;;5.28;;
31210;SDS011;17836;50.948;3.946;2023-04-25T03:59:35;18.15;;;4.88;;
31210;SDS011;17836;50.948;3.946;2023-04-25T04:02:00;16.05;;;6.00;;
31210;SDS011;17836;50.948;3.946;2023-04-25T04:04:28;14.43;;;5.30;;
31210;SDS011;17836;50.948;3.946;2023-04-25T04:06:53;10.80;;;4.38;;
31210;SDS011;17836;50.948;3.946;2023-04-25T04:09:21;21.45;;;6.22;;
31210;SDS011;17836;50.948;3.946;2023-04-25T04:11:49;18.33;;;5.32;;
31210;SDS011;17836;50.948;3.946;2023-04-25T04:14:14;15.40;;;5.95;;
31210;SDS011;17836;50.948;3.946;2023-04-25T04:16:39;16.35;;;5.43;;
31210;SDS011;17836;50.948;3.946;2023-04-25T04:19:05;14.90;;;5.97;;
31210;SDS011;17836;50.948;3.946;2023-04-25T04:21:30;15.05;;;6.05;;
31210;SDS011;17836;50.948;3.946;2023-04-25T04:23:56;18.42;;;6.18;;
31210;SDS011;17836;50.948;3.946;2023-04-25T04:26:23;14.02;;;6.65;;
31210;SDS011;17836;50.948;3.946;2023-04-25T04:28:49;14.45;;;5.45;;
31210;SDS011;17836;50.948;3.946;2023-04-25T04:31:18;23.30;;;6.45;;
31210;SDS011;17836;50.948;3.946;2023-04-25T04:33:44;19.48;;;6.95;;
31210;SDS011;17836;50.948;3.946;2023-04-25T04:36:10;17.48;;;7.15;;
31210;SDS011;17836;50.948;3.946;2023-04-25T04:38:37;13.07;;;6.35;;
31210;SDS011;17836;50.948;3.946;2023-04-25T04:41:02;15.48;;;5.88;;
31210;SDS011;17836;50.948;3.946;2023-04-25T04:43:28;20.42;;;6.45;;
31210;SDS011;17836;50.948;3.946;2023-04-25T04:45:53;17.75;;;6.53;;
31210;SDS011;17836;50.948;3.946;2023-04-25T04:48:21;19.55;;;6.60;;
31210;SDS011;17836;50.948;3.946;2023-04-25T04:50:46;13.15;;;6.43;;
31210;SDS011;17836;50.948;3.946;2023-04-25T04:53:13;19.92;;;6.55;;
31210;SDS011;17836;50.948;3.946;2023-04-25T04:55:39;18.92;;;6.70;;
31210;SDS011;17836;50.948;3.946;2023-04-25T04:58:06;17.90;;;7.28;;
31210;SDS011;17836;50.948;3.946;2023-04-25T05:00:31;13.45;;;4.40;;
31210;SDS011;17836;50.948;3.946;2023-04-25T05:02:57;14.48;;;5.43;;
31210;SDS011;17836;50.948;3.946;2023-04-25T05:05:22;15.65;;;5.85;;
31210;SDS011;17836;50.948;3.946;2023-04-25T05:07:49;11.60;;;5.00;;
31210;SDS011;17836;50.948;3.946;2023-04-25T05:10:16;18.48;;;5.85;;
31210;SDS011;17836;50.948;3.946;2023-04-25T05:12:41;14.95;;;5.38;;
31210;SDS011;17836;50.948;3.946;2023-04-25T05:15:07;14.13;;;5.10;;
31210;SDS011;17836;50.948;3.946;2023-04-25T05:17:32;10.52;;;4.75;;
31210;SDS011;17836;50.948;3.946;2023-04-25T05:19:57;19.75;;;5.38;;
31210;SDS011;17836;50.948;3.946;2023-04-25T05:22:25;17.00;;;4.85;;
31210;SDS011;17836;50.948;3.946;2023-04-25T05:24:51;12.95;;;4.68;;
31210;SDS011;17836;50.948;3.946;2023-04-25T05:27:17;10.32;;;4.53;;
31210;SDS011;17836;50.948;3.946;2023-04-25T05:29:44;7.97;;;3.58;;
31210;SDS011;17836;50.948;3.946;2023-04-25T05:32:10;7.68;;;4.40;;
31210;SDS011;17836;50.948;3.946;2023-04-25T05:34:36;14.25;;;4.93;;
31210;SDS011;17836;50.948;3.946;2023-04-25T05:37:01;7.97;;;3.60;;
31210;SDS011;17836;50.948;3.946;2023-04-25T05:39:27;13.05;;;5.05;;
31210;SDS011;17836;50.948;3.946;2023-04-25T05:41:52;13.80;;;5.53;;
31210;SDS011;17836;50.948;3.946;2023-04-25T05:44:17;11.40;;;4.55;;
31210;SDS011;17836;50.948;3.946;2023-04-25T05:46:47;11.18;;;4.95;;
31210;SDS011;17836;50.948;3.946;2023-04-25T05:49:13;18.55;;;5.63;;
31210;SDS011;17836;50.948;3.946;2023-04-25T05:51:38;10.50;;;5.57;;
31210;SDS011;17836;50.948;3.946;2023-04-25T05:54:03;13.83;;;4.90;;
31210;SDS011;17836;50.948;3.946;2023-04-25T05:56:31;13.82;;;5.68;;
31210;SDS011;17836;50.948;3.946;2023-04-25T05:58:56;14.18;;;5.47;;
31210;SDS011;17836;50.948;3.946;2023-04-25T06:01:24;13.73;;;5.45;;
31210;SDS011;17836;50.948;3.946;2023-04-25T06:03:49;14.80;;;4.75;;
31210;SDS011;17836;50.948;3.946;2023-04-25T06:06:16;15.70;;;4.95;;
31210;SDS011;17836;50.948;3.946;2023-04-25T06:08:41;12.98;;;4.50;;
31210;SDS011;17836;50.948;3.946;2023-04-25T06:11:06;10.83;;;4.57;;
31210;SDS011;17836;50.948;3.946;2023-04-25T06:13:34;10.95;;;4.75;;
31210;SDS011;17836;50.948;3.946;2023-04-25T06:15:59;19.85;;;5.90;;
31210;SDS011;17836;50.948;3.946;2023-04-25T06:18:24;10.63;;;4.77;;
31210;SDS011;17836;50.948;3.946;2023-04-25T06:20:50;14.20;;;3.72;;
31210;SDS011;17836;50.948;3.946;2023-04-25T06:23:15;10.93;;;4.25;;
31210;SDS011;17836;50.948;3.946;2023-04-25T06:25:42;20.63;;;5.38;;
31210;SDS011;17836;50.948;3.946;2023-04-25T06:28:08;17.43;;;4.60;;
31210;SDS011;17836;50.948;3.946;2023-04-25T06:30:33;19.50;;;5.53;;
31210;SDS011;17836;50.948;3.946;2023-04-25T06:32:58;9.30;;;2.93;;
31210;SDS011;17836;50.948;3.946;2023-04-25T06:35:26;12.13;;;3.70;;
31210;SDS011;17836;50.948;3.946;2023-04-25T06:37:53;15.40;;;3.78;;
31210;SDS011;17836;50.948;3.946;2023-04-25T06:40:21;11.87;;;3.70;;
31210;SDS011;17836;50.948;3.946;2023-04-25T06:42:48;14.00;;;4.50;;
31210;SDS011;17836;50.948;3.946;2023-04-25T06:45:14;10.27;;;3.90;;
31210;SDS011;17836;50.948;3.946;2023-04-25T06:47:41;10.13;;;3.85;;
31210;SDS011;17836;50.948;3.946;2023-04-25T06:50:06;17.42;;;5.63;;
31210;SDS011;17836;50.948;3.946;2023-04-25T06:52:32;10.82;;;4.38;;
31210;SDS011;17836;50.948;3.946;2023-04-25T06:54:57;9.47;;;4.30;;
31210;SDS011;17836;50.948;3.946;2023-04-25T06:57:23;11.20;;;4.05;;
31210;SDS011;17836;50.948;3.946;2023-04-25T06:59:48;22.27;;;4.15;;
31210;SDS011;17836;50.948;3.946;2023-04-25T07:02:13;10.20;;;3.78;;
31210;SDS011;17836;50.948;3.946;2023-04-25T07:04:39;13.57;;;4.10;;
31210;SDS011;17836;50.948;3.946;2023-04-25T07:07:04;16.17;;;4.82;;
31210;SDS011;17836;50.948;3.946;2023-04-25T07:09:32;18.75;;;4.25;;
31210;SDS011;17836;50.948;3.946;2023-04-25T07:11:58;10.52;;;3.90;;
31210;SDS011;17836;50.948;3.946;2023-04-25T07:14:24;11.80;;;4.13;;
31210;SDS011;17836;50.948;3.946;2023-04-25T07:16:50;12.27;;;3.97;;
31210;SDS011;17836;50.948;3.946;2023-04-25T07:19:15;14.65;;;3.92;;
31210;SDS011;17836;50.948;3.946;2023-04-25T07:21:40;11.40;;;3.97;;
31210;SDS011;17836;50.948;3.946;2023-04-25T07:24:06;11.37;;;3.50;;
31210;SDS011;17836;50.948;3.946;2023-04-25T07:26:31;13.77;;;3.25;;
31210;SDS011;17836;50.948;3.946;2023-04-25T07:28:56;12.15;;;4.60;;
31210;SDS011;17836;50.948;3.946;2023-04-25T07:31:24;11.90;;;3.73;;
31210;SDS011;17836;50.948;3.946;2023-04-25T07:33:49;14.05;;;3.53;;
31210;SDS011;17836;50.948;3.946;2023-04-25T07:36:17;9.30;;;2.67;;
31210;SDS011;17836;50.948;3.946;2023-04-25T07:38:45;6.95;;;2.92;;
31210;SDS011;17836;50.948;3.946;2023-04-25T07:41:11;11.15;;;3.08;;
31210;SDS011;17836;50.948;3.946;2023-04-25T07:43:36;10.93;;;3.08;;
31210;SDS011;17836;50.948;3.946;2023-04-25T07:46:01;6.78;;;2.90;;
31210;SDS011;17836;50.948;3.946;2023-04-25T07:48:29;16.33;;;3.40;;
31210;SDS011;17836;50.948;3.946;2023-04-25T07:50:55;11.82;;;3.22;;
31210;SDS011;17836;50.948;3.946;2023-04-25T07:53:20;11.65;;;3.53;;
31210;SDS011;17836;50.948;3.946;2023-04-25T07:55:46;15.05;;;3.55;;
31210;SDS011;17836;50.948;3.946;2023-04-25T07:58:11;9.87;;;3.40;;
31210;SDS011;17836;50.948;3.946;2023-04-25T08:00:36;8.05;;;3.40;;
31210;SDS011;17836;50.948;3.946;2023-04-25T08:03:02;9.75;;;2.63;;
31210;SDS011;17836;50.948;3.946;2023-04-25T08:05:28;9.68;;;3.67;;
31210;SDS011;17836;50.948;3.946;2023-04-25T08:07:53;10.18;;;3.03;;
31210;SDS011;17836;50.948;3.946;2023-04-25T08:10:19;11.93;;;2.83;;
31210;SDS011;17836;50.948;3.946;2023-04-25T08:12:44;12.32;;;2.63;;
31210;SDS011;17836;50.948;3.946;2023-04-25T08:15:09;11.70;;;2.10;;
31210;SDS011;17836;50.948;3.946;2023-04-25T08:17:35;3.40;;;1.63;;
31210;SDS011;17836;50.948;3.946;2023-04-25T08:20:00;6.30;;;2.50;;
31210;SDS011;17836;50.948;3.946;2023-04-25T08:22:25;10.23;;;2.70;;
31210;SDS011;17836;50.948;3.946;2023-04-25T08:24:51;12.63;;;2.30;;
31210;SDS011;17836;50.948;3.946;2023-04-25T08:27:17;7.72;;;2.13;;
31210;SDS011;17836;50.948;3.946;2023-04-25T08:29:42;7.57;;;2.00;;
31210;SDS011;17836;50.948;3.946;2023-04-25T08:32:08;8.82;;;2.47;;
31210;SDS011;17836;50.948;3.946;2023-04-25T08:34:33;10.00;;;2.40;;
31210;SDS011;17836;50.948;3.946;2023-04-25T08:36:58;6.73;;;3.00;;
31210;SDS011;17836;50.948;3.946;2023-04-25T08:39:24;6.95;;;2.90;;
31210;SDS011;17836;50.948;3.946;2023-04-25T08:41:49;7.78;;;2.47;;
31210;SDS011;17836;50.948;3.946;2023-04-25T08:44:15;7.35;;;2.80;;
31210;SDS011;17836;50.948;3.946;2023-04-25T08:46:41;8.98;;;2.28;;
31210;SDS011;17836;50.948;3.946;2023-04-25T08:49:07;8.43;;;2.33;;
31210;SDS011;17836;50.948;3.946;2023-04-25T08:51:32;7.43;;;2.78;;
31210;SDS011;17836;50.948;3.946;2023-04-25T08:54:00;8.65;;;2.90;;
31210;SDS011;17836;50.948;3.946;2023-04-25T08:58:54;9.68;;;2.22;;
31210;SDS011;17836;50.948;3.946;2023-04-25T09:01:20;7.22;;;2.10;;
31210;SDS011;17836;50.948;3.946;2023-04-25T09:03:45;6.47;;;1.38;;
31210;SDS011;17836;50.948;3.946;2023-04-25T09:06:12;3.53;;;1.20;;
31210;SDS011;17836;50.948;3.946;2023-04-25T09:08:40;5.80;;;2.05;;
31210;SDS011;17836;50.948;3.946;2023-04-25T09:11:07;4.70;;;1.77;;
31210;SDS011;17836;50.948;3.946;2023-04-25T09:13:35;3.10;;;1.25;;
31210;SDS011;17836;50.948;3.946;2023-04-25T09:16:00;5.47;;;1.50;;
31210;SDS011;17836;50.948;3.946;2023-04-25T09:18:27;4.78;;;1.88;;
31210;SDS011;17836;50.948;3.946;2023-04-25T09:20:57;4.22;;;2.10;;
31210;SDS011;17836;50.948;3.946;2023-04-25T09:23:25;4.43;;;1.85;;
31210;SDS011;17836;50.948;3.946;2023-04-25T09:25:51;4.60;;;1.30;;
31210;SDS011;17836;50.948;3.946;2023-04-25T09:28:23;6.28;;;2.00;;
31210;SDS011;17836;50.948;3.946;2023-04-25T09:30:49;7.32;;;1.92;;
31210;SDS011;17836;50.948;3.946;2023-04-25T09:33:14;7.57;;;2.05;;
31210;SDS011;17836;50.948;3.946;2023-04-25T09:35:40;7.00;;;2.40;;
31210;SDS011;17836;50.948;3.946;2023-04-25T09:38:12;8.65;;;1.35;;
31210;SDS011;17836;50.948;3.946;2023-04-25T09:40:42;5.88;;;1.20;;
31210;SDS011;17836;50.948;3.946;2023-04-25T09:43:28;5.25;;;1.20;;
31210;SDS011;17836;50.948;3.946;2023-04-25T09:45:53;5.07;;;1.02;;
31210;SDS011;17836;50.948;3.946;2023-04-25T09:48:19;3.65;;;1.33;;
31210;SDS011;17836;50.948;3.946;2023-04-25T09:50:46;7.15;;;1.58;;
31210;SDS011;17836;50.948;3.946;2023-04-25T09:53:17;3.22;;;1.30;;
31210;SDS011;17836;50.948;3.946;2023-04-25T09:55:42;15.03;;;9.20;;
31210;SDS011;17836;50.948;3.946;2023-04-25T09:58:08;25.00;;;12.85;;
31210;SDS011;17836;50.948;3.946;2023-04-25T10:00:35;19.17;;;11.27;;
31210;SDS011;17836;50.948;3.946;2023-04-25T10:03:01;26.75;;;11.98;;
31210;SDS011;17836;50.948;3.946;2023-04-25T10:05:29;18.77;;;8.93;;
31210;SDS011;17836;50.948;3.946;2023-04-25T10:07:55;12.88;;;4.72;;
31210;SDS011;17836;50.948;3.946;2023-04-25T10:10:21;9.20;;;3.58;;
31210;SDS011;17836;50.948;3.946;2023-04-25T10:12:50;9.38;;;2.47;;
31210;SDS011;17836;50.948;3.946;2023-04-25T10:15:16;5.00;;;1.75;;
31210;SDS011;17836;50.948;3.946;2023-04-25T10:17:41;5.70;;;2.17;;
31210;SDS011;17836;50.948;3.946;2023-04-25T10:20:07;6.50;;;1.50;;
31210;SDS011;17836;50.948;3.946;2023-04-25T10:22:36;7.43;;;1.95;;
31210;SDS011;17836;50.948;3.946;2023-04-25T10:25:04;6.03;;;1.40;;
31210;SDS011;17836;50.948;3.946;2023-04-25T10:27:30;6.70;;;2.00;;
31210;SDS011;17836;50.948;3.946;2023-04-25T10:30:16;3.25;;;1.45;;
31210;SDS011;17836;50.948;3.946;2023-04-25T10:32:43;5.53;;;1.52;;
31210;SDS011;17836;50.948;3.946;2023-04-25T10:35:18;4.47;;;1.10;;
31210;SDS011;17836;50.948;3.946;2023-04-25T10:40:22;6.50;;;1.80;;
31210;SDS011;17836;50.948;3.946;2023-04-25T10:42:48;2.95;;;1.25;;
31210;SDS011;17836;50.948;3.946;2023-04-25T10:45:13;3.30;;;1.20;;
31210;SDS011;17836;50.948;3.946;2023-04-25T10:47:43;3.15;;;1.30;;
31210;SDS011;17836;50.948;3.946;2023-04-25T10:50:09;2.08;;;1.10;;
31210;SDS011;17836;50.948;3.946;2023-04-25T10:52:35;4.38;;;1.20;;
31210;SDS011;17836;50.948;3.946;2023-04-25T10:55:03;5.57;;;1.17;;
31210;SDS011;17836;50.948;3.946;2023-04-25T10:57:45;4.10;;;1.50;;
31210;SDS011;17836;50.948;3.946;2023-04-25T11:00:18;4.75;;;1.25;;
31210;SDS011;17836;50.948;3.946;2023-04-25T11:02:44;6.72;;;1.40;;
31210;SDS011;17836;50.948;3.946;2023-04-25T11:05:16;5.07;;;1.00;;
31210;SDS011;17836;50.948;3.946;2023-04-25T11:07:50;6.50;;;1.42;;
31210;SDS011;17836;50.948;3.946;2023-04-25T11:10:24;5.05;;;1.80;;
31210;SDS011;17836;50.948;3.946;2023-04-25T11:12:50;2.72;;;1.55;;
31210;SDS011;17836;50.948;3.946;2023-04-25T11:15:15;4.40;;;1.40;;
31210;SDS011;17836;50.948;3.946;2023-04-25T11:17:40;1.38;;;1.05;;
31210;SDS011;17836;50.948;3.946;2023-04-25T11:20:07;7.00;;;1.63;;
31210;SDS011;17836;50.948;3.946;2023-04-25T11:22:36;1.95;;;1.08;;
31210;SDS011;17836;50.948;3.946;2023-04-25T11:25:05;2.60;;;1.05;;
31210;SDS011;17836;50.948;3.946;2023-04-25T11:27:31;7.00;;;1.20;;
31210;SDS011;17836;50.948;3.946;2023-04-25T11:29:56;4.32;;;1.10;;
31210;SDS011;17836;50.948;3.946;2023-04-25T11:32:22;3.13;;;1.40;;
31210;SDS011;17836;50.948;3.946;2023-04-25T11:34:47;7.78;;;1.83;;
31210;SDS011;17836;50.948;3.946;2023-04-25T11:37:13;2.63;;;1.42;;
31210;SDS011;17836;50.948;3.946;2023-04-25T11:39:42;4.75;;;1.27;;
31210;SDS011;17836;50.948;3.946;2023-04-25T11:42:07;5.75;;;1.60;;
31210;SDS011;17836;50.948;3.946;2023-04-25T11:44:37;5.25;;;1.52;;
31210;SDS011;17836;50.948;3.946;2023-04-25T11:47:02;5.63;;;2.13;;
31210;SDS011;17836;50.948;3.946;2023-04-25T11:49:30;6.80;;;1.20;;
31210;SDS011;17836;50.948;3.946;2023-04-25T11:51:55;5.07;;;2.20;;
31210;SDS011;17836;50.948;3.946;2023-04-25T11:54:23;2.50;;;1.30;;
31210;SDS011;17836;50.948;3.946;2023-04-25T11:56:48;5.72;;;2.60;;
31210;SDS011;17836;50.948;3.946;2023-04-25T11:59:13;4.07;;;1.87;;
31210;SDS011;17836;50.948;3.946;2023-04-25T12:01:47;5.18;;;2.15;;
31210;SDS011;17836;50.948;3.946;2023-04-25T12:04:17;3.20;;;1.80;;
31210;SDS011;17836;50.948;3.946;2023-04-25T12:06:43;6.65;;;2.70;;
31210;SDS011;17836;50.948;3.946;2023-04-25T12:09:10;5.85;;;1.58;;
31210;SDS011;17836;50.948;3.946;2023-04-25T12:11:42;3.88;;;1.80;;
31210;SDS011;17836;50.948;3.946;2023-04-25T12:14:11;2.53;;;1.40;;
31210;SDS011;17836;50.948;3.946;2023-04-25T12:16:40;4.90;;;1.95;;
31210;SDS011;17836;50.948;3.946;2023-04-25T12:19:06;3.45;;;1.27;;
31210;SDS011;17836;50.948;3.946;2023-04-25T12:21:32;4.13;;;2.63;;
31210;SDS011;17836;50.948;3.946;2023-04-25T12:24:07;10.20;;;4.93;;
31210;SDS011;17836;50.948;3.946;2023-04-25T12:26:48;7.30;;;5.25;;
31210;SDS011;17836;50.948;3.946;2023-04-25T12:29:23;10.00;;;5.22;;
31210;SDS011;17836;50.948;3.946;2023-04-25T12:31:49;6.35;;;2.67;;
31210;SDS011;17836;50.948;3.946;2023-04-25T12:34:16;4.25;;;2.05;;
31210;SDS011;17836;50.948;3.946;2023-04-25T12:36:41;4.32;;;1.77;;
31210;SDS011;17836;50.948;3.946;2023-04-25T12:39:06;4.65;;;1.52;;
31210;SDS011;17836;50.948;3.946;2023-04-25T12:41:32;9.18;;;2.03;;
31210;SDS011;17836;50.948;3.946;2023-04-25T12:43:58;5.45;;;1.95;;
31210;SDS011;17836;50.948;3.946;2023-04-25T12:46:25;6.53;;;2.78;;
31210;SDS011;17836;50.948;3.946;2023-04-25T12:48:51;5.67;;;2.67;;
31210;SDS011;17836;50.948;3.946;2023-04-25T12:51:18;3.70;;;1.55;;
31210;SDS011;17836;50.948;3.946;2023-04-25T12:53:44;4.43;;;1.40;;
31210;SDS011;17836;50.948;3.946;2023-04-25T12:56:11;5.45;;;1.90;;
31210;SDS011;17836;50.948;3.946;2023-04-25T12:58:36;2.93;;;1.57;;
31210;SDS011;17836;50.948;3.946;2023-04-25T13:01:02;9.77;;;1.63;;
31210;SDS011;17836;50.948;3.946;2023-04-25T13:03:30;6.53;;;1.45;;
31210;SDS011;17836;50.948;3.946;2023-04-25T13:05:55;5.30;;;1.30;;
31210;SDS011;17836;50.948;3.946;2023-04-25T13:08:20;5.18;;;1.30;;
31210;SDS011;17836;50.948;3.946;2023-04-25T13:10:47;4.75;;;1.45;;
31210;SDS011;17836;50.948;3.946;2023-04-25T13:13:14;3.92;;;1.30;;
31210;SDS011;17836;50.948;3.946;2023-04-25T13:15:41;5.63;;;1.98;;
31210;SDS011;17836;50.948;3.946;2023-04-25T13:18:09;5.55;;;1.60;;
31210;SDS011;17836;50.948;3.946;2023-04-25T13:20:34;3.60;;;1.20;;
31210;SDS011;17836;50.948;3.946;2023-04-25T13:23:00;2.70;;;1.27;;
31210;SDS011;17836;50.948;3.946;2023-04-25T13:25:25;2.37;;;1.37;;
31210;SDS011;17836;50.948;3.946;2023-04-25T13:27:51;2.70;;;1.30;;
31210;SDS011;17836;50.948;3.946;2023-04-25T13:30:16;3.87;;;1.30;;
31210;SDS011;17836;50.948;3.946;2023-04-25T13:32:41;6.38;;;1.02;;
31210;SDS011;17836;50.948;3.946;2023-04-25T13:35:07;2.03;;;1.40;;
31210;SDS011;17836;50.948;3.946;2023-04-25T13:37:33;4.75;;;1.67;;
31210;SDS011;17836;50.948;3.946;2023-04-25T13:40:10;3.65;;;1.23;;
31210;SDS011;17836;50.948;3.946;2023-04-25T13:42:38;4.80;;;1.20;;
31210;SDS011;17836;50.948;3.946;2023-04-25T13:45:06;5.13;;;1.30;;
31210;SDS011;17836;50.948;3.946;2023-04-25T13:47:32;5.88;;;1.42;;
31210;SDS011;17836;50.948;3.946;2023-04-25T13:50:00;2.50;;;1.00;;
31210;SDS011;17836;50.948;3.946;2023-04-25T13:52:27;7.55;;;1.80;;
31210;SDS011;17836;50.948;3.946;2023-04-25T13:54:52;5.25;;;1.50;;
31210;SDS011;17836;50.948;3.946;2023-04-25T13:57:18;8.03;;;1.40;;
31210;SDS011;17836;50.948;3.946;2023-04-25T13:59:43;4.57;;;1.90;;
31210;SDS011;17836;50.948;3.946;2023-04-25T14:02:08;2.42;;;1.40;;
31210;SDS011;17836;50.948;3.946;2023-04-25T14:04:34;3.80;;;1.98;;
31210;SDS011;17836;50.948;3.946;2023-04-25T14:06:59;8.57;;;1.88;;
31210;SDS011;17836;50.948;3.946;2023-04-25T14:09:25;8.25;;;1.63;;
31210;SDS011;17836;50.948;3.946;2023-04-25T14:11:52;3.90;;;1.63;;
31210;SDS011;17836;50.948;3.946;2023-04-25T14:14:17;5.22;;;1.45;;
31210;SDS011;17836;50.948;3.946;2023-04-25T14:16:43;4.45;;;1.42;;
31210;SDS011;17836;50.948;3.946;2023-04-25T14:19:08;4.13;;;1.25;;
31210;SDS011;17836;50.948;3.946;2023-04-25T14:21:33;5.13;;;1.80;;
31210;SDS011;17836;50.948;3.946;2023-04-25T14:23:59;6.67;;;1.80;;
31210;SDS011;17836;50.948;3.946;2023-04-25T14:26:24;6.30;;;1.40;;
31210;SDS011;17836;50.948;3.946;2023-04-25T14:28:51;6.40;;;1.98;;
31210;SDS011;17836;50.948;3.946;2023-04-25T14:31:16;5.45;;;1.42;;
31210;SDS011;17836;50.948;3.946;2023-04-25T14:33:41;3.93;;;1.37;;
31210;SDS011;17836;50.948;3.946;2023-04-25T14:36:08;13.52;;;2.20;;
31210;SDS011;17836;50.948;3.946;2023-04-25T14:38:35;4.93;;;1.20;;
31210;SDS011;17836;50.948;3.946;2023-04-25T14:41:03;4.53;;;1.55;;